Yengema Airport

Jump to: basic info | weather | comments

Related pages: nearby airports | nearby navaids | notams | map

Basic information (top)

Codes: WYE GFYE
Location: lon 8.610470, lat -11.045400, elev 1,300 ft / 396 m msl
Status: medium_airport
Scheduled airline service: yes
Links: Wikipedia Mobile

Weather (top)

Current conditions for Lungi International Airport 128nm (236km) W (rec'd 2014/10/31 18:00Z):

GFLL 311800Z 21006KT 9999 SCT013 FEW027CB 29/23 Q1010 RMK CB-NE

Airport forecast for Lungi International Airport 128nm (236km) W (rec'd 2014/10/31 12:03Z):

TAF TAF GFLL 311000Z 3112/0118 27006KT 9999 BKN012 FEW027CB 
      TEMPO 3116/3120 28007KT 9999 TS SCT015 FEW027CB 
      BECMG 3123/0101 30008KT 9000 TSRA BKN010 FEW027CB 
      BECMG 0104/0106 0906KT 9999 BKN011

Latest comments (top)

No comments yet for Yengema Airport

More... (top)

See also NOTAMs and nearby airports and navaids, or visit the Yengema Airport page at the main OurAirports website..